createdAt,value
2022-12-04T00:00:41.554Z,80.20
2022-12-04T00:05:43.232Z,67.82
2022-12-04T00:10:44.954Z,66.78
2022-12-04T00:15:46.618Z,69.87
2022-12-04T00:20:48.875Z,79.68
2022-12-04T00:25:50.590Z,77.70
2022-12-04T00:30:52.277Z,68.50
2022-12-04T00:36:01.813Z,74.07
2022-12-04T00:41:04.412Z,73.70
2022-12-04T00:46:06.625Z,66.40
2022-12-04T00:51:14.317Z,74.65
2022-12-04T00:56:20.950Z,74.27
2022-12-04T01:01:24.425Z,74.25
2022-12-04T01:06:32.500Z,69.32
2022-12-04T01:11:34.578Z,74.22
2022-12-04T01:16:38.857Z,76.75
2022-12-04T01:21:40.934Z,83.28
2022-12-04T01:26:42.620Z,77.70
2022-12-04T01:31:44.440Z,79.32
2022-12-04T01:36:46.405Z,77.30
2022-12-04T01:41:48.145Z,76.00
2022-12-04T01:47:00.516Z,86.07
2022-12-04T01:52:11.706Z,74.85
2022-12-04T01:57:17.752Z,78.07
2022-12-04T02:02:24.527Z,87.50
2022-12-04T02:07:26.769Z,81.65
2022-12-04T02:13:06.948Z,93.43
2022-12-04T02:18:18.874Z,83.35
2022-12-04T02:23:41.080Z,78.93
2022-12-04T02:28:45.797Z,82.32
2022-12-04T02:33:54.230Z,89.13
2022-12-04T02:39:04.837Z,82.03
2022-12-04T02:44:20.336Z,80.30
2022-12-04T02:49:31.046Z,79.85
2022-12-04T02:54:38.774Z,76.78
2022-12-04T02:59:44.091Z,81.38
2022-12-04T03:04:47.361Z,73.88
2022-12-04T03:09:56.521Z,74.63
2022-12-04T03:15:12.620Z,72.70
2022-12-04T03:20:16.718Z,79.82
2022-12-04T03:25:18.627Z,88.70
2022-12-04T03:30:22.228Z,74.78
2022-12-04T03:35:30.069Z,81.88
2022-12-04T03:40:59.713Z,80.97
2022-12-04T03:46:08.207Z,83.20
2022-12-04T03:51:19.599Z,85.63
2022-12-04T03:56:32.487Z,94.30
2022-12-04T04:01:40.392Z,90.65
2022-12-04T04:06:56.170Z,88.32
2022-12-04T04:12:08.298Z,82.15
2022-12-04T04:17:38.387Z,87.88
2022-12-04T04:22:59.393Z,87.20
2022-12-04T04:28:01.160Z,91.90
2022-12-04T04:33:16.648Z,91.35
2022-12-04T04:38:31.938Z,86.57
2022-12-04T04:43:59.819Z,83.97
2022-12-04T04:49:04.074Z,80.72
2022-12-04T04:54:10.261Z,92.45
2022-12-04T04:59:12.790Z,85.90
2022-12-04T05:04:14.889Z,97.15
2022-12-04T05:09:16.611Z,86.25
2022-12-04T05:14:18.271Z,89.55
2022-12-04T05:19:38.276Z,92.45
2022-12-04T05:24:40.019Z,90.30
2022-12-04T05:29:41.715Z,78.32
2022-12-04T05:34:44.131Z,85.70
2022-12-04T05:39:46.122Z,82.47
2022-12-04T05:44:50.094Z,81.25
2022-12-04T05:49:52.357Z,85.00
2022-12-04T05:54:54.100Z,77.40
2022-12-04T05:59:56.145Z,81.03
2022-12-04T06:04:57.940Z,82.97
2022-12-04T06:09:59.636Z,90.53
2022-12-04T06:15:01.340Z,96.45
2022-12-04T06:20:06.685Z,91.32
2022-12-04T06:25:12.732Z,85.28
2022-12-04T06:30:14.463Z,97.72
2022-12-04T06:35:16.373Z,85.10
2022-12-04T06:40:18.173Z,83.63
2022-12-04T06:45:19.843Z,86.93
2022-12-04T06:50:21.518Z,91.95
2022-12-04T06:55:23.197Z,87.90
2022-12-04T07:00:24.855Z,88.38
2022-12-04T07:05:27.599Z,86.72
2022-12-04T07:10:29.272Z,85.57
2022-12-04T07:15:32.806Z,84.40
2022-12-04T07:20:34.544Z,87.85
2022-12-04T07:25:40.579Z,85.00
2022-12-04T07:30:42.283Z,91.32
2022-12-04T07:35:44.014Z,91.03
2022-12-04T07:40:45.665Z,87.70
2022-12-04T07:45:47.376Z,98.10
2022-12-04T07:50:49.295Z,89.57
2022-12-04T07:55:53.940Z,87.63
2022-12-04T08:00:55.707Z,94.90
2022-12-04T08:06:01.007Z,83.68
2022-12-04T08:11:11.452Z,98.88
2022-12-04T08:16:15.731Z,93.68
2022-12-04T08:21:20.966Z,90.72
2022-12-04T08:26:25.164Z,77.80
2022-12-04T08:31:29.506Z,83.28
2022-12-04T08:36:31.686Z,92.30
2022-12-04T08:41:33.482Z,97.63
2022-12-04T08:46:35.638Z,90.75
2022-12-04T08:51:37.595Z,90.80
2022-12-04T08:56:39.412Z,90.32
2022-12-04T09:01:41.199Z,84.55
2022-12-04T09:06:42.916Z,77.75
2022-12-04T09:11:47.649Z,80.57
2022-12-04T09:16:49.311Z,82.88
2022-12-04T09:21:50.968Z,78.95
2022-12-04T09:26:52.626Z,94.18
2022-12-04T09:31:54.362Z,87.30
2022-12-04T09:36:56.019Z,92.57
2022-12-04T09:42:15.981Z,85.20
2022-12-04T09:47:34.518Z,81.57
2022-12-04T09:52:56.221Z,84.05
2022-12-04T09:58:02.584Z,77.43
2022-12-04T10:03:07.730Z,80.50
2022-12-04T10:08:35.577Z,70.95
2022-12-04T10:14:03.058Z,78.60
2022-12-04T10:19:23.119Z,76.40
2022-12-04T10:24:39.813Z,72.43
2022-12-04T10:29:43.791Z,76.80
2022-12-04T10:34:48.536Z,72.57
2022-12-04T10:40:02.821Z,82.13
2022-12-04T10:45:06.432Z,81.80
2022-12-04T10:50:17.227Z,77.78
2022-12-04T10:55:38.289Z,78.72
2022-12-04T11:00:40.039Z,73.97
2022-12-04T11:05:52.980Z,64.47
2022-12-04T11:11:01.462Z,70.35
2022-12-04T11:16:03.707Z,75.85
2022-12-04T11:21:16.998Z,72.55
2022-12-04T11:26:33.821Z,72.50
2022-12-04T11:31:35.562Z,73.78
2022-12-04T11:36:40.656Z,76.05
2022-12-04T11:41:42.539Z,76.25
2022-12-04T11:46:52.744Z,68.05
2022-12-04T11:52:03.622Z,70.78
2022-12-04T11:57:45.741Z,68.63
2022-12-04T12:03:12.026Z,60.97
2022-12-04T12:08:38.575Z,65.07
2022-12-04T12:13:52.039Z,59.38
2022-12-04T12:19:25.744Z,60.00
2022-12-04T12:24:32.119Z,62.05
2022-12-04T12:30:07.204Z,61.38
2022-12-04T12:35:24.782Z,67.47
2022-12-04T12:40:34.663Z,61.47
2022-12-04T12:45:42.226Z,64.03
2022-12-04T12:51:29.559Z,65.32
2022-12-04T12:56:41.252Z,68.88
2022-12-04T13:01:54.769Z,65.05
2022-12-04T13:07:26.055Z,65.53
2022-12-04T13:12:28.642Z,62.45
2022-12-04T13:17:38.542Z,69.10
2022-12-04T13:22:59.806Z,73.70
2022-12-04T13:28:20.223Z,62.60
2022-12-04T13:33:29.298Z,60.30
2022-12-04T13:39:09.875Z,66.82
2022-12-04T13:44:21.222Z,63.60
2022-12-04T13:49:34.410Z,59.35
2022-12-04T13:54:36.924Z,64.05
2022-12-04T13:59:40.100Z,60.67
2022-12-04T14:04:52.157Z,55.20
2022-12-04T14:09:56.775Z,56.85
2022-12-04T14:15:03.225Z,53.95
2022-12-04T14:20:26.391Z,52.53
2022-12-04T14:25:39.848Z,45.30
2022-12-04T14:30:44.156Z,49.30
2022-12-04T14:35:54.720Z,47.60
2022-12-04T14:40:58.314Z,44.03
2022-12-04T14:46:13.893Z,43.80
2022-12-04T14:51:41.823Z,43.38
2022-12-04T14:57:01.716Z,44.85
2022-12-04T15:02:04.662Z,41.75
2022-12-04T15:07:06.496Z,51.53
2022-12-04T15:12:34.561Z,43.20
2022-12-04T15:17:36.301Z,52.17
2022-12-04T15:22:38.376Z,44.28
2022-12-04T15:27:40.324Z,38.45
2022-12-04T15:32:42.311Z,39.38
2022-12-04T15:37:44.059Z,41.63
2022-12-04T15:42:45.784Z,46.28
2022-12-04T15:47:47.403Z,42.15
2022-12-04T15:53:03.863Z,39.53
2022-12-04T15:58:18.127Z,41.00
2022-12-04T16:03:31.041Z,42.60
2022-12-04T16:08:37.655Z,36.80
2022-12-04T16:13:39.333Z,48.20
2022-12-04T16:18:41.442Z,38.28
2022-12-04T16:23:43.679Z,38.80
2022-12-04T16:28:46.070Z,40.20
2022-12-04T16:33:47.731Z,37.15
2022-12-04T16:38:50.417Z,42.35
2022-12-04T16:43:57.424Z,63.95
2022-12-04T16:49:04.282Z,66.97
2022-12-04T16:54:11.471Z,65.97
2022-12-04T16:59:13.214Z,60.63
2022-12-04T17:04:16.625Z,61.30
2022-12-04T17:09:18.768Z,54.92
2022-12-04T17:14:20.452Z,60.10
2022-12-04T17:19:22.115Z,61.63
2022-12-04T17:24:23.779Z,66.57
2022-12-04T17:29:25.458Z,61.50
2022-12-04T17:34:27.127Z,62.20
2022-12-04T17:39:29.122Z,63.28
2022-12-04T17:44:30.799Z,65.68
2022-12-04T17:49:32.564Z,71.35
2022-12-04T17:54:34.666Z,70.20
2022-12-04T17:59:36.353Z,71.13
2022-12-04T18:04:38.175Z,64.88
2022-12-04T18:09:40.052Z,58.13
2022-12-04T18:14:41.840Z,54.45
2022-12-04T18:19:43.573Z,44.45
2022-12-04T18:24:45.237Z,45.40
2022-12-04T18:29:46.917Z,30.30
2022-12-04T18:34:48.615Z,34.35
2022-12-04T18:39:51.099Z,38.90
2022-12-04T18:44:52.794Z,35.60
2022-12-04T18:49:54.738Z,28.52
2022-12-04T18:54:56.779Z,33.92
2022-12-04T18:59:58.817Z,30.08
2022-12-04T19:05:00.887Z,27.33
2022-12-04T19:10:10.724Z,26.25
2022-12-04T19:15:22.983Z,23.13
2022-12-04T19:20:24.650Z,24.90
2022-12-04T19:25:26.331Z,21.05
2022-12-04T19:30:28.166Z,22.67
2022-12-04T19:35:29.983Z,20.00
2022-12-04T19:40:31.660Z,20.48
2022-12-04T19:45:33.431Z,23.73
2022-12-04T19:50:35.168Z,21.40
2022-12-04T19:55:37.679Z,22.52
2022-12-04T20:00:39.459Z,25.25
2022-12-04T20:05:41.673Z,21.90
2022-12-04T20:10:43.540Z,22.13
2022-12-04T20:15:45.243Z,22.25
2022-12-04T20:20:57.747Z,18.65
2022-12-04T20:26:04.759Z,20.95
2022-12-04T20:31:28.337Z,20.85
2022-12-04T20:36:31.849Z,19.83
2022-12-04T20:41:33.865Z,20.58
2022-12-04T20:46:38.317Z,23.38
2022-12-04T20:51:41.860Z,19.70
2022-12-04T20:56:44.372Z,23.85
2022-12-04T21:01:46.989Z,21.33
2022-12-04T21:06:49.399Z,20.20
2022-12-04T21:11:53.657Z,20.88
2022-12-04T21:16:55.902Z,36.03
2022-12-04T21:21:57.617Z,32.40
2022-12-04T21:26:59.288Z,22.67
2022-12-04T21:32:01.227Z,21.85
2022-12-04T21:37:02.973Z,21.13
2022-12-04T21:42:23.364Z,20.70
2022-12-04T21:47:25.470Z,21.27
2022-12-04T21:52:27.167Z,20.60
2022-12-04T21:57:29.252Z,23.75
2022-12-04T22:02:31.821Z,18.35
2022-12-04T22:07:33.618Z,18.98
2022-12-04T22:12:50.977Z,22.92
2022-12-04T22:17:53.113Z,16.90
2022-12-04T22:22:54.777Z,19.58
2022-12-04T22:27:57.530Z,15.90
2022-12-04T22:32:59.299Z,16.17
2022-12-04T22:38:01.002Z,13.70
2022-12-04T22:43:02.678Z,14.20
2022-12-04T22:48:04.722Z,12.75
2022-12-04T22:53:06.412Z,11.60
2022-12-04T22:58:08.102Z,13.35
2022-12-04T23:03:09.961Z,14.77
2022-12-04T23:08:11.820Z,15.63
2022-12-04T23:13:13.746Z,15.85
2022-12-04T23:18:15.509Z,17.33
2022-12-04T23:23:17.217Z,18.70
2022-12-04T23:28:18.887Z,19.15
2022-12-04T23:33:20.592Z,23.58
2022-12-04T23:38:23.958Z,21.75
2022-12-04T23:43:25.680Z,22.02
2022-12-04T23:48:28.026Z,28.33
2022-12-04T23:53:29.760Z,25.98
2022-12-04T23:58:32.603Z,28.70
